KCFD/CFD METAR and TAF weather

Enter ICAO airport designator
Station Type Date Time Source
KCFD METAR 2020/07/04 02:15 UTC NOAA

KCFD 040215Z AUTO 11007KT 10SM CLR 27/20 A2998 RMK AO2 T02680197


Station Type Date Time Source
KCFD Decoded METAR 2020/07/04 02:15 UTC NOAA

Station name not available
Jul 03, 2020 - 10:15 PM EDT / 2020.07.04 0215 UTC
Wind: from the ESE (110 degrees) at 8 MPH (7 KT):0
Visibility: 10 mile(s):0
Sky conditions: clear
Temperature: 80.2 F (26.8 C)
Dew Point: 67.5 F (19.7 C)
Relative Humidity: 65%
Pressure (altimeter): 29.98 in. Hg (1015 hPa)
ob: KCFD 040215Z AUTO 11007KT 10SM CLR 27/20 A2998 RMK AO2 T02680197
cycle: 2

Station Type Date Time Source
KCFD TAF UTC NOAA

Error!

Example: see airport list